createdAt,value
2023-02-09T00:02:14.441Z,3.65
2023-02-09T00:04:42.031Z,4.35
2023-02-09T00:07:09.284Z,4.45
2023-02-09T00:09:36.589Z,5.00
2023-02-09T00:12:22.618Z,4.10
2023-02-09T00:14:49.975Z,4.55
2023-02-09T00:17:17.186Z,3.85
2023-02-09T00:19:44.393Z,4.25
2023-02-09T00:22:11.727Z,3.97
2023-02-09T00:24:39.035Z,3.88
2023-02-09T00:27:06.277Z,3.85
2023-02-09T00:29:33.631Z,4.50
2023-02-09T00:32:00.908Z,3.95
2023-02-09T00:34:28.328Z,5.53
2023-02-09T00:36:55.677Z,3.78
2023-02-09T00:39:23.654Z,3.70
2023-02-09T00:42:06.148Z,4.22
2023-02-09T00:44:35.753Z,5.05
2023-02-09T00:47:04.620Z,4.22
2023-02-09T00:52:01.628Z,3.72
2023-02-09T00:54:28.933Z,4.40
2023-02-09T00:56:56.263Z,4.60
2023-02-09T00:59:23.465Z,4.22
2023-02-09T01:01:50.673Z,4.50
2023-02-09T01:04:18.121Z,3.90
2023-02-09T01:06:47.711Z,4.32
2023-02-09T01:09:16.967Z,4.60
2023-02-09T01:11:44.234Z,4.00
2023-02-09T01:14:11.947Z,4.35
2023-02-09T01:16:40.148Z,4.20
2023-02-09T01:19:07.597Z,3.95
2023-02-09T01:21:34.805Z,4.40
2023-02-09T01:24:02.592Z,4.20
2023-02-09T01:26:30.009Z,4.13
2023-02-09T01:28:57.305Z,4.20
2023-02-09T01:31:32.961Z,4.35
2023-02-09T01:34:03.845Z,4.57
2023-02-09T01:36:33.605Z,4.35
2023-02-09T01:39:04.757Z,4.28
2023-02-09T01:41:35.309Z,4.35
2023-02-09T01:44:30.217Z,3.45
2023-02-09T01:46:57.421Z,4.13
2023-02-09T01:49:28.501Z,4.10
2023-02-09T01:52:11.157Z,4.20
2023-02-09T01:55:02.027Z,4.03
2023-02-09T01:57:39.748Z,4.43
2023-02-09T02:00:17.882Z,4.22
2023-02-09T02:03:07.551Z,3.85
2023-02-09T02:05:40.128Z,3.80
2023-02-09T02:08:23.599Z,4.65
2023-02-09T02:10:52.960Z,4.18
2023-02-09T02:13:20.929Z,3.33
2023-02-09T02:16:24.906Z,4.80
2023-02-09T02:19:21.618Z,4.28
2023-02-09T02:22:51.374Z,4.03
2023-02-09T02:26:45.265Z,4.53
2023-02-09T02:29:52.600Z,3.70
2023-02-09T02:33:00.685Z,4.50
2023-02-09T02:36:16.730Z,4.57
2023-02-09T02:39:06.277Z,4.55
2023-02-09T02:42:37.444Z,5.22
2023-02-09T02:45:43.290Z,3.92
2023-02-09T02:48:42.736Z,3.80
2023-02-09T02:54:24.196Z,3.38
2023-02-09T02:57:05.463Z,4.55
2023-02-09T02:59:48.587Z,4.80
2023-02-09T03:02:23.715Z,4.28
2023-02-09T03:04:55.576Z,4.80
2023-02-09T03:07:22.961Z,4.88
2023-02-09T03:09:56.158Z,4.72
2023-02-09T03:12:38.716Z,4.50
2023-02-09T03:15:49.884Z,5.93
2023-02-09T03:18:48.466Z,4.57
2023-02-09T03:21:26.966Z,4.47
2023-02-09T03:24:09.444Z,4.60
2023-02-09T03:27:00.991Z,4.10
2023-02-09T03:29:30.189Z,4.82
2023-02-09T03:31:57.680Z,4.25
2023-02-09T03:34:24.981Z,5.07
2023-02-09T03:36:56.516Z,5.05
2023-02-09T03:39:24.191Z,4.63
2023-02-09T03:41:51.586Z,4.63
2023-02-09T03:44:28.041Z,4.40
2023-02-09T03:47:01.308Z,5.07
2023-02-09T03:49:39.782Z,4.25
2023-02-09T03:52:12.410Z,4.85
2023-02-09T03:54:40.380Z,4.85
2023-02-09T03:57:08.688Z,4.78
2023-02-09T03:59:37.640Z,4.68
2023-02-09T04:02:08.638Z,4.45
2023-02-09T04:04:37.498Z,4.85
2023-02-09T04:09:32.559Z,5.13
2023-02-09T04:11:59.853Z,4.10
2023-02-09T04:14:27.086Z,4.70
2023-02-09T04:16:54.298Z,4.82
2023-02-09T04:19:21.576Z,4.38
2023-02-09T04:21:48.802Z,4.75
2023-02-09T04:24:21.807Z,4.45
2023-02-09T04:26:49.057Z,5.35
2023-02-09T04:29:16.317Z,4.90
2023-02-09T04:31:43.618Z,4.80
2023-02-09T04:34:10.839Z,5.25
2023-02-09T04:36:38.030Z,5.40
2023-02-09T04:39:05.236Z,4.65
2023-02-09T04:41:32.433Z,5.38
2023-02-09T04:44:00.247Z,4.93
2023-02-09T04:46:27.509Z,4.97
2023-02-09T04:48:54.831Z,4.82
2023-02-09T04:51:22.191Z,5.22
2023-02-09T04:53:49.443Z,4.97
2023-02-09T04:56:17.228Z,4.63
2023-02-09T04:59:03.806Z,4.60
2023-02-09T05:01:31.612Z,4.60
2023-02-09T05:03:58.978Z,5.45
2023-02-09T05:06:26.231Z,4.97
2023-02-09T05:08:53.443Z,4.97
2023-02-09T05:11:20.693Z,5.00
2023-02-09T05:13:48.549Z,4.32
2023-02-09T05:16:20.189Z,5.53
2023-02-09T05:18:47.660Z,5.22
2023-02-09T05:21:14.895Z,4.97
2023-02-09T05:23:42.526Z,5.25
2023-02-09T05:26:10.150Z,5.20
2023-02-09T05:28:37.434Z,5.35
2023-02-09T05:31:05.009Z,5.40
2023-02-09T05:33:32.413Z,5.60
2023-02-09T05:35:59.783Z,5.18
2023-02-09T05:38:27.028Z,5.47
2023-02-09T05:40:54.320Z,5.38
2023-02-09T05:43:21.533Z,5.78
2023-02-09T05:45:48.738Z,5.20
2023-02-09T05:48:16.040Z,4.53
2023-02-09T05:50:43.580Z,6.22
2023-02-09T05:53:11.009Z,5.53
2023-02-09T05:55:38.349Z,5.53
2023-02-09T05:58:05.761Z,7.95
2023-02-09T06:00:33.208Z,5.25
2023-02-09T06:03:00.442Z,5.25
2023-02-09T06:05:28.232Z,5.25
2023-02-09T06:07:56.197Z,4.97
2023-02-09T06:10:23.573Z,5.63
2023-02-09T06:12:50.893Z,5.10
2023-02-09T06:15:18.225Z,5.72
2023-02-09T06:17:46.316Z,4.93
2023-02-09T06:20:13.713Z,5.45
2023-02-09T06:22:41.306Z,5.65
2023-02-09T06:25:08.770Z,5.18
2023-02-09T06:27:36.946Z,5.25
2023-02-09T06:30:06.197Z,5.25
2023-02-09T06:32:33.509Z,5.57
2023-02-09T06:35:00.796Z,6.13
2023-02-09T06:37:31.079Z,5.85
2023-02-09T06:39:58.365Z,6.35
2023-02-09T06:42:43.552Z,6.03
2023-02-09T06:45:14.354Z,5.72
2023-02-09T06:47:45.801Z,5.90
2023-02-09T06:50:16.504Z,5.47
2023-02-09T06:52:43.949Z,5.22
2023-02-09T06:55:12.010Z,5.93
2023-02-09T06:57:39.917Z,5.03
2023-02-09T07:00:09.723Z,5.45
2023-02-09T07:02:37.112Z,5.55
2023-02-09T07:05:04.682Z,5.07
2023-02-09T07:07:31.986Z,5.40
2023-02-09T07:09:59.353Z,5.50
2023-02-09T07:12:26.545Z,5.53
2023-02-09T07:14:53.823Z,5.65
2023-02-09T07:17:21.095Z,5.97
2023-02-09T07:19:49.292Z,5.28
2023-02-09T07:22:16.709Z,6.72
2023-02-09T07:24:44.018Z,6.03
2023-02-09T07:27:11.338Z,6.35
2023-02-09T07:29:38.517Z,5.95
2023-02-09T07:32:08.067Z,5.57
2023-02-09T07:34:35.897Z,5.25
2023-02-09T07:37:04.507Z,5.97
2023-02-09T07:39:32.327Z,5.47
2023-02-09T07:41:59.883Z,7.38
2023-02-09T07:44:42.850Z,6.10
2023-02-09T07:47:10.298Z,5.60
2023-02-09T07:49:37.772Z,6.35
2023-02-09T07:52:05.303Z,6.78
2023-02-09T07:54:32.770Z,6.28
2023-02-09T07:56:59.953Z,6.05
2023-02-09T07:59:27.418Z,4.82
2023-02-09T08:01:54.870Z,5.75
2023-02-09T08:04:22.763Z,4.93
2023-02-09T08:06:50.345Z,5.60
2023-02-09T08:09:17.634Z,4.78
2023-02-09T08:12:02.669Z,5.07
2023-02-09T08:14:48.159Z,5.03
2023-02-09T08:17:20.501Z,5.53
2023-02-09T08:20:15.240Z,5.75
2023-02-09T08:22:49.207Z,5.32
2023-02-09T08:25:21.463Z,5.25
2023-02-09T08:27:50.619Z,4.75
2023-02-09T08:30:19.293Z,4.93
2023-02-09T08:32:46.632Z,5.22
2023-02-09T08:35:14.307Z,5.13
2023-02-09T08:37:41.691Z,5.00
2023-02-09T08:40:10.053Z,6.10
2023-02-09T08:42:37.293Z,4.60
2023-02-09T08:45:05.098Z,5.65
2023-02-09T08:47:32.419Z,5.65
2023-02-09T08:49:59.662Z,5.85
2023-02-09T08:52:26.987Z,4.45
2023-02-09T08:54:54.382Z,4.60
2023-02-09T08:57:23.120Z,5.35
2023-02-09T08:59:51.490Z,5.18
2023-02-09T09:02:18.766Z,4.78
2023-02-09T09:04:46.910Z,4.40
2023-02-09T09:07:14.977Z,4.80
2023-02-09T09:09:42.228Z,5.10
2023-02-09T09:12:09.476Z,5.05
2023-02-09T09:14:36.821Z,5.05
2023-02-09T09:17:04.179Z,4.55
2023-02-09T09:19:31.494Z,4.63
2023-02-09T09:22:00.341Z,5.00
2023-02-09T09:26:56.081Z,4.57
2023-02-09T09:29:24.989Z,5.07
2023-02-09T09:31:52.468Z,5.05
2023-02-09T09:34:20.049Z,5.22
2023-02-09T09:36:47.300Z,4.60
2023-02-09T09:39:14.600Z,4.13
2023-02-09T09:41:41.903Z,4.60
2023-02-09T09:44:52.188Z,5.32
2023-02-09T09:47:36.366Z,4.78
2023-02-09T09:50:19.194Z,5.05
2023-02-09T09:53:12.504Z,4.93
2023-02-09T09:58:08.106Z,4.60
2023-02-09T10:00:41.420Z,4.80
2023-02-09T10:03:21.400Z,4.18
2023-02-09T10:05:56.830Z,4.50
2023-02-09T10:08:43.984Z,5.00
2023-02-09T10:13:52.680Z,5.95
2023-02-09T10:16:25.679Z,4.65
2023-02-09T10:18:59.617Z,4.53
2023-02-09T10:21:33.285Z,5.35
2023-02-09T10:24:00.450Z,5.82
2023-02-09T10:26:34.770Z,5.65
2023-02-09T10:29:11.177Z,5.32
2023-02-09T10:32:27.227Z,5.43
2023-02-09T10:34:57.857Z,4.80
2023-02-09T10:37:34.436Z,4.70
2023-02-09T10:40:27.044Z,4.68
2023-02-09T10:43:04.714Z,5.20
2023-02-09T10:45:44.020Z,4.97
2023-02-09T10:48:12.972Z,4.60
2023-02-09T10:54:06.107Z,5.38
2023-02-09T11:02:02.909Z,5.95
2023-02-09T11:04:41.155Z,4.85
2023-02-09T11:07:20.584Z,5.55
2023-02-09T11:09:51.502Z,6.10
2023-02-09T11:12:22.612Z,6.82
2023-02-09T11:14:50.101Z,6.03
2023-02-09T11:17:42.310Z,6.70
2023-02-09T11:21:10.838Z,6.68
2023-02-09T11:24:01.207Z,7.20
2023-02-09T11:26:58.056Z,6.15
2023-02-09T11:29:37.823Z,6.18
2023-02-09T11:33:04.833Z,7.13
2023-02-09T11:36:24.474Z,6.03
2023-02-09T11:39:06.044Z,5.18
2023-02-09T11:42:02.913Z,6.47
2023-02-09T11:44:54.230Z,7.15
2023-02-09T11:47:52.461Z,6.47
2023-02-09T11:51:08.345Z,7.60
2023-02-09T11:54:31.633Z,8.07
2023-02-09T11:57:18.163Z,6.93
2023-02-09T11:59:57.049Z,7.53
2023-02-09T12:02:58.633Z,7.45
2023-02-09T12:05:26.948Z,7.18
2023-02-09T12:08:34.831Z,6.63
2023-02-09T12:11:53.518Z,8.35
2023-02-09T12:14:24.390Z,8.98
2023-02-09T12:17:16.275Z,8.27
2023-02-09T12:19:55.339Z,8.40
2023-02-09T12:22:34.683Z,6.70
2023-02-09T12:25:36.171Z,7.38
2023-02-09T12:28:09.572Z,7.00
2023-02-09T12:30:42.898Z,6.90
2023-02-09T12:33:23.565Z,7.05
2023-02-09T12:36:33.620Z,7.45
2023-02-09T12:40:38.137Z,7.95
2023-02-09T12:43:26.489Z,6.78
2023-02-09T12:46:28.499Z,7.07
2023-02-09T12:49:01.603Z,6.78
2023-02-09T12:51:53.186Z,8.15
2023-02-09T12:54:50.218Z,7.63
2023-02-09T12:57:17.936Z,7.47
2023-02-09T12:59:55.119Z,7.18
2023-02-09T13:02:55.371Z,7.70
2023-02-09T13:05:37.302Z,8.05
2023-02-09T13:08:11.343Z,8.30
2023-02-09T13:10:52.143Z,7.57
2023-02-09T13:13:44.129Z,8.20
2023-02-09T13:16:43.913Z,7.80
2023-02-09T13:19:47.085Z,7.50
2023-02-09T13:22:35.730Z,7.03
2023-02-09T13:25:38.836Z,8.57
2023-02-09T13:28:22.565Z,7.18
2023-02-09T13:30:50.186Z,8.63
2023-02-09T13:33:51.258Z,7.47
2023-02-09T13:37:02.831Z,8.27
2023-02-09T13:39:37.376Z,9.63
2023-02-09T13:42:25.513Z,9.38
2023-02-09T13:44:57.571Z,7.28
2023-02-09T13:47:27.768Z,8.85
2023-02-09T13:50:23.820Z,8.40
2023-02-09T13:52:52.093Z,9.20
2023-02-09T13:55:26.813Z,8.43
2023-02-09T13:58:03.094Z,8.90
2023-02-09T14:00:51.213Z,8.20
2023-02-09T14:03:29.967Z,8.45
2023-02-09T14:06:54.831Z,7.80
2023-02-09T14:09:31.120Z,7.47
2023-02-09T14:12:07.232Z,6.20
2023-02-09T14:15:03.581Z,8.02
2023-02-09T14:17:38.873Z,8.07
2023-02-09T14:20:22.546Z,6.40
2023-02-09T14:23:00.538Z,8.60
2023-02-09T14:25:30.910Z,9.10
2023-02-09T14:27:58.902Z,8.50
2023-02-09T14:30:32.636Z,9.48
2023-02-09T14:33:03.803Z,9.60
2023-02-09T14:35:41.130Z,8.57
2023-02-09T14:38:46.984Z,9.07
2023-02-09T14:41:36.312Z,8.70
2023-02-09T14:44:06.452Z,8.90
2023-02-09T14:46:53.441Z,8.30
2023-02-09T14:49:22.527Z,7.00
2023-02-09T14:52:05.948Z,8.80
2023-02-09T14:54:47.346Z,8.35
2023-02-09T14:57:14.817Z,8.50
2023-02-09T14:59:42.359Z,9.77
2023-02-09T15:02:19.831Z,9.13
2023-02-09T15:04:47.776Z,8.13
2023-02-09T15:07:33.803Z,9.13
2023-02-09T15:10:10.262Z,8.90
2023-02-09T15:12:37.437Z,9.02
2023-02-09T15:15:05.125Z,9.73
2023-02-09T15:17:32.542Z,9.57
2023-02-09T15:19:59.747Z,10.95
2023-02-09T15:22:26.949Z,9.85
2023-02-09T15:24:54.775Z,10.32
2023-02-09T15:27:33.783Z,9.30
2023-02-09T15:30:04.529Z,9.57
2023-02-09T15:32:32.145Z,8.13
2023-02-09T15:34:59.383Z,8.30
2023-02-09T15:37:34.862Z,9.32
2023-02-09T15:40:50.458Z,8.60
2023-02-09T15:43:42.974Z,8.45
2023-02-09T15:46:30.013Z,8.80
2023-02-09T15:51:28.490Z,8.63
2023-02-09T15:54:01.185Z,9.43
2023-02-09T15:56:28.859Z,9.73
2023-02-09T15:59:03.271Z,10.23
2023-02-09T16:01:34.408Z,10.75
2023-02-09T16:04:13.827Z,10.43
2023-02-09T16:06:49.593Z,9.70
2023-02-09T16:09:26.711Z,10.05
2023-02-09T16:11:54.401Z,10.00
2023-02-09T16:14:25.627Z,9.25
2023-02-09T16:16:53.611Z,9.68
2023-02-09T16:19:21.438Z,9.82
2023-02-09T16:21:58.825Z,11.13
2023-02-09T16:24:40.019Z,10.05
2023-02-09T16:27:28.969Z,8.85
2023-02-09T16:29:58.492Z,9.40
2023-02-09T16:32:28.421Z,9.13
2023-02-09T16:35:04.556Z,10.05
2023-02-09T16:37:38.307Z,8.48
2023-02-09T16:40:24.708Z,8.73
2023-02-09T16:42:52.327Z,9.93
2023-02-09T16:45:20.393Z,9.98
2023-02-09T16:47:54.832Z,7.47
2023-02-09T16:50:35.460Z,8.70
2023-02-09T16:53:18.220Z,9.52
2023-02-09T16:55:48.923Z,10.45
2023-02-09T16:58:18.330Z,9.13
2023-02-09T17:00:45.874Z,9.85
2023-02-09T17:03:33.163Z,11.10
2023-02-09T17:06:02.314Z,10.82
2023-02-09T17:08:35.144Z,9.93
2023-02-09T17:11:04.149Z,10.30
2023-02-09T17:13:32.038Z,8.25
2023-02-09T17:16:06.230Z,8.35
2023-02-09T17:18:42.434Z,10.15
2023-02-09T17:21:25.532Z,9.30
2023-02-09T17:23:54.418Z,9.38
2023-02-09T17:26:21.703Z,10.13
2023-02-09T17:28:48.900Z,9.00
2023-02-09T17:31:36.088Z,9.60
2023-02-09T17:34:09.443Z,8.50
2023-02-09T17:36:37.534Z,9.07
2023-02-09T17:39:04.893Z,9.93
2023-02-09T17:41:37.366Z,10.02
2023-02-09T17:44:31.595Z,9.20
2023-02-09T17:47:06.004Z,8.75
2023-02-09T17:49:34.122Z,10.25
2023-02-09T17:52:01.374Z,9.98
2023-02-09T17:54:28.904Z,10.02
2023-02-09T17:56:56.048Z,9.63
2023-02-09T17:59:23.273Z,8.48
2023-02-09T18:01:50.673Z,8.73
2023-02-09T18:04:24.778Z,9.07
2023-02-09T18:06:52.176Z,10.35
2023-02-09T18:09:19.531Z,10.82
2023-02-09T18:11:52.371Z,15.98
2023-02-09T18:14:22.106Z,14.48
2023-02-09T18:16:49.807Z,15.68
2023-02-09T18:19:17.735Z,9.50
2023-02-09T18:21:55.373Z,9.35
2023-02-09T18:24:27.415Z,8.10
2023-02-09T18:26:55.246Z,10.38
2023-02-09T18:29:28.962Z,9.00
2023-02-09T18:32:02.096Z,10.13
2023-02-09T18:34:30.121Z,8.88
2023-02-09T18:36:57.285Z,8.98
2023-02-09T18:39:24.504Z,8.77
2023-02-09T18:41:54.788Z,9.77
2023-02-09T18:44:29.467Z,10.15
2023-02-09T18:47:00.535Z,9.50
2023-02-09T18:49:28.639Z,10.75
2023-02-09T18:51:56.955Z,9.60
2023-02-09T18:54:27.143Z,9.40
2023-02-09T18:56:55.814Z,9.10
2023-02-09T18:59:23.015Z,11.80
2023-02-09T19:01:50.706Z,11.20
2023-02-09T19:04:18.626Z,11.85
2023-02-09T19:06:45.783Z,10.85
2023-02-09T19:09:13.113Z,11.13
2023-02-09T19:11:40.575Z,9.50
2023-02-09T19:14:26.518Z,9.95
2023-02-09T19:16:53.773Z,9.43
2023-02-09T19:19:21.145Z,10.88
2023-02-09T19:21:51.957Z,10.23
2023-02-09T19:24:19.429Z,9.52
2023-02-09T19:26:46.676Z,9.82
2023-02-09T19:29:14.217Z,9.98
2023-02-09T19:31:41.588Z,9.93
2023-02-09T19:34:08.788Z,9.35
2023-02-09T19:36:35.951Z,9.75
2023-02-09T19:39:03.372Z,11.32
2023-02-09T19:41:31.168Z,11.05
2023-02-09T19:43:58.551Z,10.15
2023-02-09T19:46:25.931Z,11.05
2023-02-09T19:48:57.462Z,14.93
2023-02-09T19:51:24.986Z,10.88
2023-02-09T19:53:52.347Z,9.80
2023-02-09T19:56:26.263Z,9.63
2023-02-09T19:58:53.695Z,9.45
2023-02-09T20:01:21.601Z,10.43
2023-02-09T20:03:49.561Z,9.40
2023-02-09T20:06:18.441Z,11.02
2023-02-09T20:11:20.114Z,10.10
2023-02-09T20:13:51.648Z,11.10
2023-02-09T20:16:24.852Z,11.10
2023-02-09T20:18:53.431Z,10.93
2023-02-09T20:21:23.558Z,9.57
2023-02-09T20:23:55.739Z,10.15
2023-02-09T20:26:29.480Z,10.55
2023-02-09T20:28:58.729Z,10.85
2023-02-09T20:31:32.655Z,9.75
2023-02-09T20:34:05.142Z,10.88
2023-02-09T20:36:38.655Z,10.73
2023-02-09T20:39:10.891Z,10.93
2023-02-09T20:41:38.158Z,10.13
2023-02-09T20:44:23.927Z,10.55
2023-02-09T20:46:57.220Z,9.82
2023-02-09T20:49:31.129Z,11.77
2023-02-09T20:51:58.495Z,9.70
2023-02-09T20:54:25.902Z,9.18
2023-02-09T20:56:53.119Z,9.90
2023-02-09T20:59:20.366Z,10.63
2023-02-09T21:01:48.032Z,9.63
2023-02-09T21:04:15.598Z,10.25
2023-02-09T21:06:43.094Z,12.05
2023-02-09T21:09:15.901Z,11.75
2023-02-09T21:11:43.253Z,9.52
2023-02-09T21:14:21.761Z,10.68
2023-02-09T21:16:56.244Z,9.95
2023-02-09T21:19:25.975Z,10.73
2023-02-09T21:21:53.545Z,9.70
2023-02-09T21:24:21.377Z,11.45
2023-02-09T21:26:49.626Z,10.82
2023-02-09T21:29:18.214Z,9.45
2023-02-09T21:31:45.621Z,10.20
2023-02-09T21:34:15.971Z,11.07
2023-02-09T21:36:43.835Z,10.43
2023-02-09T21:39:11.128Z,12.27
2023-02-09T21:41:57.087Z,10.65
2023-02-09T21:44:24.330Z,10.40
2023-02-09T21:46:51.565Z,12.23
2023-02-09T21:49:18.684Z,11.00
2023-02-09T21:51:46.068Z,12.50
2023-02-09T21:54:17.795Z,13.20
2023-02-09T21:56:45.429Z,14.25
2023-02-09T21:59:12.738Z,11.48
2023-02-09T22:01:41.808Z,12.10
2023-02-09T22:04:09.208Z,11.93
2023-02-09T22:06:36.534Z,11.43
2023-02-09T22:09:06.208Z,11.27
2023-02-09T22:11:33.906Z,12.57
2023-02-09T22:14:01.124Z,11.48
2023-02-09T22:16:29.422Z,10.23
2023-02-09T22:18:56.997Z,10.13
2023-02-09T22:21:24.183Z,12.57
2023-02-09T22:23:53.479Z,12.70
2023-02-09T22:26:21.203Z,12.27
2023-02-09T22:28:48.725Z,11.07
2023-02-09T22:31:20.195Z,11.75
2023-02-09T22:33:48.296Z,11.05
2023-02-09T22:36:21.346Z,10.98
2023-02-09T22:38:48.657Z,11.50
2023-02-09T22:41:23.690Z,11.00
2023-02-09T22:43:58.373Z,10.82
2023-02-09T22:46:38.635Z,11.82
2023-02-09T22:49:17.467Z,11.68
2023-02-09T22:51:47.503Z,12.07
2023-02-09T22:54:18.352Z,12.30
2023-02-09T22:56:46.196Z,13.05
2023-02-09T22:59:15.170Z,11.63
2023-02-09T23:04:10.487Z,11.07
2023-02-09T23:06:37.732Z,10.77
2023-02-09T23:09:07.900Z,11.38
2023-02-09T23:11:36.252Z,11.25
2023-02-09T23:14:09.616Z,11.18
2023-02-09T23:16:40.922Z,12.75
2023-02-09T23:19:18.435Z,12.73
2023-02-09T23:21:51.854Z,12.95
2023-02-09T23:24:22.155Z,12.02
2023-02-09T23:26:49.527Z,11.40
2023-02-09T23:29:18.812Z,10.38
2023-02-09T23:31:47.999Z,12.18
2023-02-09T23:34:22.162Z,11.32
2023-02-09T23:36:49.537Z,12.60
2023-02-09T23:39:22.278Z,12.00
2023-02-09T23:41:49.843Z,11.48
2023-02-09T23:44:17.064Z,12.05
2023-02-09T23:46:44.771Z,13.07
2023-02-09T23:49:12.365Z,11.13
2023-02-09T23:51:39.612Z,12.68
2023-02-09T23:54:07.962Z,10.95
2023-02-09T23:56:38.635Z,11.18
2023-02-09T23:59:13.151Z,13.02
